Flight Track Log - Related Links

Times and Time Zones

All times are in EDT time to prevent confusion due to time zone crossing. See the N960DL flight status page for this flight to view local times or setup timezone preferences in your user account.

Time Position Orientation Groundspeed Altitude Reporting Facility
EDT Latitude Longitude Course Direction KTS MPH feet Rate Location/Type
Mon 11:54:55 AM 33.6494 -84.4806 246° West 445 512 2,500  Level Atlanta Center
Mon 11:55:55 AM 33.6658 -84.5556 285° West 328 377 4,700 2,250 Climbing Atlanta Center
Mon 11:56:55 AM 33.6800 -84.6356 282° West 286 329 7,000 2,500 Climbing Atlanta Center
Mon 11:57:00 AM 33.8001 -84.4862 270° West  Level FlightAware Approximate
Mon 11:57:55 AM 33.6942 -84.7231 281° West 279 321 9,700  Level Atlanta Center
Mon 11:58:00 AM 33.7762 -84.6117 234° Southwest  Level FlightAware Approximate
Mon 11:58:55 AM 33.6833 -84.8153 262° West 287 330 10,600  Level Atlanta Center
Mon 11:59:00 AM 33.7100 -84.7192 234° Southwest  Level FlightAware Approximate
Mon 11:59:55 AM 33.6367 -84.9194 242° Southwest 330 380 12,000  Level Atlanta Center
Mon 12:00:00 PM 33.6458 -84.8280 246° West  Level FlightAware Approximate
Mon 12:00:55 PM 33.5878 -85.0364 243° Southwest 376 433 14,600  Level Atlanta Center
Mon 12:01:55 PM 33.5367 -85.1653 245° Southwest 390 449 16,700 2,000 Climbing Atlanta Center
Mon 12:02:55 PM 33.5019 -85.2944 252° West 410 472 18,600 1,750 Climbing Atlanta Center
Mon 12:03:55 PM 33.4817 -85.4336 260° West 422 486 20,200 1,650 Climbing Atlanta Center
Mon 12:04:55 PM 33.4611 -85.5775 260° West 434 499 21,900 1,600 Climbing Atlanta Center
Mon 12:05:55 PM 33.4383 -85.7217 259° West 440 506 23,400 1,400 Climbing Atlanta Center
Mon 12:06:55 PM 33.4158 -85.8481 258° West 448 516 24,700 1,300 Climbing Atlanta Center
Mon 12:07:55 PM 33.3906 -85.9994 259° West 448 516 26,000 1,450 Climbing Atlanta Center
Mon 12:08:55 PM 33.3669 -86.1506 259° West 459 528 27,600 1,500 Climbing Atlanta Center
Mon 12:09:55 PM 33.3436 -86.2992 259° West 465 535 29,000 1,350 Climbing Atlanta Center
Mon 12:10:55 PM 33.3111 -86.4625 257° West 465 535 30,300 1,100 Climbing Atlanta Center
Mon 12:11:55 PM 33.2919 -86.5911 260° West 465 535 31,200 1,000 Climbing Atlanta Center
Mon 12:12:55 PM 33.2703 -86.7319 260° West 455 524 32,300 900 Climbing Atlanta Center
Mon 12:13:55 PM 33.2483 -86.8731 260° West 441 507 33,000 850 Climbing Atlanta Center
Mon 12:14:55 PM 33.2056 -87.0056 243° Southwest 431 496 34,000 500 Climbing Atlanta Center
Mon 12:15:00 PM 33.1870 -87.0017 243° Southwest  Level FlightAware Approximate
Mon 12:15:55 PM 33.1417 -87.1375 240° Southwest 423 487 34,000  Level Atlanta Center
Mon 12:16:55 PM 33.0842 -87.2667 242° Southwest 429 494 34,000  Level Atlanta Center
Mon 12:17:55 PM 33.0264 -87.3908 241° Southwest 429 494 34,000  Level Atlanta Center
Mon 12:19:45 PM 32.9217 -87.6250 242° Southwest 440 506 34,000  Level Memphis Center
Mon 12:20:45 PM 32.8639 -87.7531 242° Southwest 440 506 34,000  Level Memphis Center
Mon 12:21:45 PM 32.8058 -87.8808 242° Southwest 440 506 34,000  Level Memphis Center
Mon 12:22:45 PM 32.7581 -87.9956 244° Southwest 440 506 34,000  Level Memphis Center
Mon 12:23:45 PM 32.6997 -88.1231 241° Southwest 440 506 34,000  Level Memphis Center
Mon 12:24:45 PM 32.6394 -88.2506 241° Southwest 440 506 34,000  Level Memphis Center
Mon 12:25:45 PM 32.5808 -88.3750 241° Southwest 440 506 34,000  Level Memphis Center
Mon 12:26:45 PM 32.5181 -88.5022 240° Southwest 440 506 34,000  Level Memphis Center
Mon 12:27:45 PM 32.4594 -88.6314 242° Southwest 440 506 34,000  Level Memphis Center
Mon 12:28:45 PM 32.4006 -88.7581 241° Southwest 440 506 34,000  Level Memphis Center
Mon 12:29:45 PM 32.3522 -88.8942 247° West 440 506 34,000  Level Memphis Center
Mon 12:30:45 PM 32.3142 -89.0300 252° West 445 512 34,000  Level Memphis Center
Mon 12:31:45 PM 32.2758 -89.1681 252° West 445 512 34,000  Level Memphis Center
Mon 12:32:45 PM 32.2333 -89.3061 250° West 445 512 34,000  Level Memphis Center
Mon 12:33:45 PM 32.1947 -89.4392 251° West 445 512 34,000  Level Memphis Center
Mon 12:34:45 PM 32.1539 -89.5769 251° West 445 512 34,000  Level Memphis Center
Mon 12:35:45 PM 32.1150 -89.7122 251° West 445 512 34,000 -50 Level Memphis Center
Mon 12:36:45 PM 32.0739 -89.8497 251° West 445 512 33,900 -950 Descending Memphis Center
Mon 12:37:45 PM 32.0325 -89.9872 250° West 445 512 32,100 -1,700 Descending Memphis Center
Mon 12:38:45 PM 31.9933 -90.1222 251° West 445 512 30,500 -1,050 Descending Memphis Center
Mon 12:39:45 PM 31.9517 -90.2642 251° West 450 518 30,000 -170 Descending Memphis Center
Mon 12:41:41 PM 31.8656 -90.5453 250° West 455 524 30,000  Level Houston Center
Mon 12:42:43 PM 31.8244 -90.6803 250° West 446 513 30,000  Level Houston Center
Mon 12:43:46 PM 31.7850 -90.8150 251° West 441 507 30,000  Level Houston Center
Mon 12:44:48 PM 31.7431 -90.9531 250° West 450 518 30,000  Level Houston Center
Mon 12:45:50 PM 31.7003 -91.0911 250° West 453 521 30,000  Level Houston Center
Mon 12:46:52 PM 31.6481 -91.2597 250° West 452 520 30,000  Level Houston Center
Mon 12:47:54 PM 31.6033 -91.3972 249° West 453 521 30,000  Level Houston Center
Mon 12:48:56 PM 31.5472 -91.5281 243° Southwest 450 518 30,000  Level Houston Center
Mon 12:49:58 PM 31.4881 -91.6550 241° Southwest 444 511 30,000  Level Houston Center
Mon 12:51:01 PM 31.4308 -91.7808 242° Southwest 439 505 30,000  Level Houston Center
Mon 12:52:03 PM 31.3733 -91.9064 242° Southwest 438 504 30,000  Level Houston Center
Mon 12:53:05 PM 31.3108 -92.0417 242° Southwest 439 505 30,000  Level Houston Center
Mon 12:54:07 PM 31.2522 -92.1669 241° Southwest 440 506 30,000  Level Houston Center
Mon 12:55:09 PM 31.1944 -92.2928 242° Southwest 441 507 30,000  Level Houston Center
Mon 12:56:11 PM 31.1217 -92.4428 240° Southwest 443 510 30,000  Level Houston Center
Mon 12:57:13 PM 31.0631 -92.5692 242° Southwest 444 511 30,000  Level Houston Center
Mon 12:58:15 PM 31.0039 -92.6936 241° Southwest 444 511 30,000  Level Houston Center
Mon 12:59:18 PM 30.9444 -92.8197 241° Southwest 442 509 30,000  Level Houston Center
Mon 01:00:20 PM 30.8847 -92.9469 241° Southwest 446 513 30,000  Level Houston Center
Mon 01:01:22 PM 30.8125 -93.0994 241° Southwest 451 519 30,000  Level Houston Center
Mon 01:02:24 PM 30.7522 -93.2264 241° Southwest 451 519 30,000  Level Houston Center
Mon 01:03:26 PM 30.6917 -93.3525 241° Southwest 451 519 30,000  Level Houston Center
Mon 01:04:28 PM 30.6319 -93.4778 241° Southwest 451 519 30,000 -919 Level Houston Center
Mon 01:05:30 PM 30.5711 -93.6017 240° Southwest 449 517 28,100 -2,592 Descending Houston Center
Mon 01:06:33 PM 30.4997 -93.7503 241° Southwest 449 517 24,600 -3,168 Descending Houston Center
Mon 01:07:35 PM 30.4419 -93.8692 241° Southwest 432 497 21,500 -3,068 Descending Houston Center
Mon 01:08:01 PM 30.4131 -93.9289 241° Southwest 425 489 20,100 -2,806 Descending Houston Center
Mon 01:08:37 PM 30.3844 -93.9878 241° Southwest 427 491 18,600 -2,559 Descending Houston Center
Mon 01:09:09 PM 30.3469 -94.0639 240° Southwest 424 488 17,200 -2,226 Descending Houston Center
Mon 01:09:39 PM 30.3278 -94.1042 241° Southwest 417 480 16,300 -2,239 Descending Houston Center
Mon 01:10:16 PM 30.2858 -94.1883 240° Southwest 394 453 14,700 -2,710 Descending Houston Center
Mon 01:10:41 PM 30.2644 -94.2339 241° Southwest 388 447 13,500 -2,459 Descending Houston Center
Mon 01:11:17 PM 30.2317 -94.2994 240° Southwest 378 435 12,200 -1,548 Descending Houston Center
Mon 01:11:43 PM 30.2125 -94.3375 240° Southwest 374 430 11,900 -393 Descending Houston Center
Mon 01:12:18 PM 30.1911 -94.3992 248° West 329 379 11,800 -774 Descending Houston Center
Mon 01:12:45 PM 30.1844 -94.4394 259° West 338 389 11,100 -1,612 Descending Houston Center
Mon 01:13:25 PM 30.1711 -94.5156 259° West 318 366 10,000 -1,065 Descending Houston Center
Mon 01:13:47 PM 30.1689 -94.5369 263° West 322 371 10,000  Level Houston Center
Mon 01:14:20 PM 30.1553 -94.6119 258° West 327 376 10,000  Level Houston Center
Mon 01:14:49 PM 30.1528 -94.6406 264° West 326 375 10,000  Level Houston Center
Mon 01:15:16 PM 30.1392 -94.7058 256° West 328 377 10,000  Level Houston Center
Mon 01:15:51 PM 30.1314 -94.7628 261° West 326 375 10,000 -182 Level Houston Center
Mon 01:16:22 PM 30.1203 -94.8147 256° West 301 346 9,800 -952 Descending Houston Center
Mon 01:16:54 PM 30.1142 -94.8581 261° West 311 358 9,000 -1,742 Descending Houston Center
Mon 01:17:24 PM 30.1058 -94.9058 259° West 291 335 8,000 -1,548 Descending Houston Center
Mon 01:17:56 PM 30.1044 -94.9469 268° West 287 330 7,400 -1,527 Descending Houston Center
Mon 01:18:19 PM 30.1053 -94.9906 271° West 286 329 6,600 -1,355 Descending Houston Center
Mon 01:18:58 PM 30.1053 -95.0389 270° West 287 330 6,000 -590 Descending Houston Center
Mon 01:19:20 PM 30.1039 -95.0872 268° West 285 328 6,000  Level Houston Center
Mon 01:20:00 PM 30.1064 -95.1294 274° West 285 328 6,000  Level Houston Center
Mon 01:20:21 PM 30.1061 -95.1789 270° West 285 328 6,000  Level Houston Center
Mon 01:21:02 PM 30.1081 -95.2386 272° West 285 328 6,000  Level Houston Center
Mon 01:21:23 PM 30.1061 -95.2706 266° West 283 326 6,000  Level Houston Center
Mon 01:22:04 PM 30.1067 -95.3292 271° West 285 328 6,000 -455 Level Houston Center
Mon 01:22:29 PM 30.1053 -95.3744 268° West 280 322 5,500 -1,355 Descending Houston Center
Mon 01:23:06 PM 30.1072 -95.4197 273° West 285 328 4,600 -1,742 Descending Houston Center
Mon 01:23:31 PM 30.1069 -95.4611 270° West 272 313 3,700 -1,548 Descending Houston Center
Mon 01:24:08 PM 30.1075 -95.5042 271° West 273 314 3,000 -689 Descending Houston Center
Mon 01:24:32 PM 30.1017 -95.5439 260° West 259 298 3,000  Level Houston Center
Mon 01:25:10 PM 30.0914 -95.5792 251° West 253 291 3,000  Level Houston Center
Mon 01:25:27 PM 30.0756 -95.6025 232° Southwest 219 252 3,000  Level Houston Center
Mon 01:26:12 PM 30.0308 -95.6003 178° South 234 269 3,000  Level Houston Center
Mon 01:26:28 PM 30.0136 -95.5931 160° South 216 249 3,000  Level Houston Center
Mon 01:27:15 PM 29.9942 -95.5572 122° Southeast 207 238 3,000 -275 Level Houston Center
Mon 01:28:17 PM 29.9933 -95.4975 91° East 192 221 2,500 -484 Descending Houston Center

Login

Don't have an account? Register now (free) for customized features, flight alerts, and more!